sensor_id;sensor_type;location;lat;lon;timestamp;P1;durP1;ratioP1;P2;durP2;ratioP2
39314;SDS011;28703;44.412;11.918;2023-03-11T00:00:08;28.27;;;6.72;;
39314;SDS011;28703;44.412;11.918;2023-03-11T00:02:38;22.33;;;5.72;;
39314;SDS011;28703;44.412;11.918;2023-03-11T00:05:05;26.33;;;6.43;;
39314;SDS011;28703;44.412;11.918;2023-03-11T00:07:32;26.38;;;5.75;;
39314;SDS011;28703;44.412;11.918;2023-03-11T00:09:58;24.08;;;6.80;;
39314;SDS011;28703;44.412;11.918;2023-03-11T00:12:24;24.17;;;6.22;;
39314;SDS011;28703;44.412;11.918;2023-03-11T00:14:50;24.27;;;6.75;;
39314;SDS011;28703;44.412;11.918;2023-03-11T00:17:16;29.05;;;7.40;;
39314;SDS011;28703;44.412;11.918;2023-03-11T00:19:42;31.30;;;8.43;;
39314;SDS011;28703;44.412;11.918;2023-03-11T00:22:08;27.73;;;8.43;;
39314;SDS011;28703;44.412;11.918;2023-03-11T00:24:34;30.45;;;7.28;;
39314;SDS011;28703;44.412;11.918;2023-03-11T00:27:00;27.15;;;6.63;;
39314;SDS011;28703;44.412;11.918;2023-03-11T00:29:26;27.73;;;5.95;;
39314;SDS011;28703;44.412;11.918;2023-03-11T00:31:51;35.63;;;7.65;;
39314;SDS011;28703;44.412;11.918;2023-03-11T00:34:17;31.77;;;6.22;;
39314;SDS011;28703;44.412;11.918;2023-03-11T00:36:43;29.35;;;7.03;;
39314;SDS011;28703;44.412;11.918;2023-03-11T00:39:09;31.90;;;6.43;;
39314;SDS011;28703;44.412;11.918;2023-03-11T00:41:35;30.38;;;6.47;;
39314;SDS011;28703;44.412;11.918;2023-03-11T00:44:01;29.90;;;6.80;;
39314;SDS011;28703;44.412;11.918;2023-03-11T00:46:30;32.15;;;6.75;;
39314;SDS011;28703;44.412;11.918;2023-03-11T00:48:56;33.20;;;7.25;;
39314;SDS011;28703;44.412;11.918;2023-03-11T00:51:22;29.25;;;6.75;;
39314;SDS011;28703;44.412;11.918;2023-03-11T00:53:48;29.48;;;6.22;;
39314;SDS011;28703;44.412;11.918;2023-03-11T00:56:14;31.40;;;7.45;;
39314;SDS011;28703;44.412;11.918;2023-03-11T00:58:44;41.40;;;8.45;;
39314;SDS011;28703;44.412;11.918;2023-03-11T01:01:11;35.25;;;6.55;;
39314;SDS011;28703;44.412;11.918;2023-03-11T01:03:42;40.88;;;7.00;;
39314;SDS011;28703;44.412;11.918;2023-03-11T01:06:09;27.40;;;6.65;;
39314;SDS011;28703;44.412;11.918;2023-03-11T01:08:38;31.30;;;6.53;;
39314;SDS011;28703;44.412;11.918;2023-03-11T01:11:05;38.63;;;7.43;;
39314;SDS011;28703;44.412;11.918;2023-03-11T01:13:32;21.48;;;5.55;;
39314;SDS011;28703;44.412;11.918;2023-03-11T01:15:59;33.55;;;8.07;;
39314;SDS011;28703;44.412;11.918;2023-03-11T01:18:25;34.08;;;6.40;;
39314;SDS011;28703;44.412;11.918;2023-03-11T01:20:52;29.88;;;6.78;;
39314;SDS011;28703;44.412;11.918;2023-03-11T01:23:18;37.40;;;7.63;;
39314;SDS011;28703;44.412;11.918;2023-03-11T01:25:46;26.52;;;6.57;;
39314;SDS011;28703;44.412;11.918;2023-03-11T01:28:12;34.03;;;7.30;;
39314;SDS011;28703;44.412;11.918;2023-03-11T01:30:38;25.20;;;6.00;;
39314;SDS011;28703;44.412;11.918;2023-03-11T01:33:06;28.63;;;6.95;;
39314;SDS011;28703;44.412;11.918;2023-03-11T01:35:33;31.48;;;6.82;;
39314;SDS011;28703;44.412;11.918;2023-03-11T01:37:59;24.77;;;6.38;;
39314;SDS011;28703;44.412;11.918;2023-03-11T01:40:29;26.65;;;6.80;;
39314;SDS011;28703;44.412;11.918;2023-03-11T01:43:36;30.33;;;6.93;;
39314;SDS011;28703;44.412;11.918;2023-03-11T01:46:39;35.50;;;5.80;;
39314;SDS011;28703;44.412;11.918;2023-03-11T01:49:28;34.40;;;6.82;;
39314;SDS011;28703;44.412;11.918;2023-03-11T01:51:59;28.40;;;7.00;;
39314;SDS011;28703;44.412;11.918;2023-03-11T01:54:29;36.63;;;8.00;;
39314;SDS011;28703;44.412;11.918;2023-03-11T01:56:58;30.92;;;7.20;;
39314;SDS011;28703;44.412;11.918;2023-03-11T01:59:31;32.05;;;6.93;;
39314;SDS011;28703;44.412;11.918;2023-03-11T02:02:04;38.50;;;7.72;;
39314;SDS011;28703;44.412;11.918;2023-03-11T02:04:40;33.08;;;7.32;;
39314;SDS011;28703;44.412;11.918;2023-03-11T02:07:07;42.20;;;8.55;;
39314;SDS011;28703;44.412;11.918;2023-03-11T02:09:35;37.03;;;7.80;;
39314;SDS011;28703;44.412;11.918;2023-03-11T02:12:01;32.88;;;7.97;;
39314;SDS011;28703;44.412;11.918;2023-03-11T02:14:31;40.33;;;8.60;;
39314;SDS011;28703;44.412;11.918;2023-03-11T02:16:58;46.03;;;8.25;;
39314;SDS011;28703;44.412;11.918;2023-03-11T02:22:31;35.50;;;7.25;;
39314;SDS011;28703;44.412;11.918;2023-03-11T02:25:07;44.03;;;7.70;;
39314;SDS011;28703;44.412;11.918;2023-03-11T02:27:51;44.30;;;7.47;;
39314;SDS011;28703;44.412;11.918;2023-03-11T02:30:21;38.90;;;8.05;;
39314;SDS011;28703;44.412;11.918;2023-03-11T02:32:49;29.55;;;7.65;;
39314;SDS011;28703;44.412;11.918;2023-03-11T02:35:16;34.50;;;8.52;;
39314;SDS011;28703;44.412;11.918;2023-03-11T02:37:44;30.63;;;7.47;;
39314;SDS011;28703;44.412;11.918;2023-03-11T02:40:26;32.75;;;7.40;;
39314;SDS011;28703;44.412;11.918;2023-03-11T02:42:56;30.98;;;6.35;;
39314;SDS011;28703;44.412;11.918;2023-03-11T02:45:25;40.50;;;8.90;;
39314;SDS011;28703;44.412;11.918;2023-03-11T02:47:52;33.40;;;7.50;;
39314;SDS011;28703;44.412;11.918;2023-03-11T02:50:21;31.45;;;7.57;;
39314;SDS011;28703;44.412;11.918;2023-03-11T02:52:49;29.48;;;7.20;;
39314;SDS011;28703;44.412;11.918;2023-03-11T02:55:16;32.97;;;7.30;;
39314;SDS011;28703;44.412;11.918;2023-03-11T02:57:45;45.40;;;11.27;;
39314;SDS011;28703;44.412;11.918;2023-03-11T03:00:12;35.30;;;6.78;;
39314;SDS011;28703;44.412;11.918;2023-03-11T03:02:46;44.00;;;8.23;;
39314;SDS011;28703;44.412;11.918;2023-03-11T03:05:17;31.45;;;6.65;;
39314;SDS011;28703;44.412;11.918;2023-03-11T03:07:46;37.33;;;7.53;;
39314;SDS011;28703;44.412;11.918;2023-03-11T03:10:13;34.65;;;6.15;;
39314;SDS011;28703;44.412;11.918;2023-03-11T03:12:40;38.17;;;7.28;;
39314;SDS011;28703;44.412;11.918;2023-03-11T03:15:08;32.13;;;6.85;;
39314;SDS011;28703;44.412;11.918;2023-03-11T03:17:35;35.92;;;6.95;;
39314;SDS011;28703;44.412;11.918;2023-03-11T03:20:07;43.75;;;8.57;;
39314;SDS011;28703;44.412;11.918;2023-03-11T03:22:41;33.03;;;6.78;;
39314;SDS011;28703;44.412;11.918;2023-03-11T03:25:10;39.17;;;7.90;;
39314;SDS011;28703;44.412;11.918;2023-03-11T03:27:36;39.20;;;7.90;;
39314;SDS011;28703;44.412;11.918;2023-03-11T03:30:05;42.83;;;8.73;;
39314;SDS011;28703;44.412;11.918;2023-03-11T03:32:32;36.85;;;8.73;;
39314;SDS011;28703;44.412;11.918;2023-03-11T03:35:00;40.17;;;7.35;;
39314;SDS011;28703;44.412;11.918;2023-03-11T03:37:42;33.33;;;6.55;;
39314;SDS011;28703;44.412;11.918;2023-03-11T03:40:08;43.58;;;7.97;;
39314;SDS011;28703;44.412;11.918;2023-03-11T03:42:36;39.97;;;9.35;;
39314;SDS011;28703;44.412;11.918;2023-03-11T03:45:04;27.55;;;6.15;;
39314;SDS011;28703;44.412;11.918;2023-03-11T03:47:32;36.53;;;7.07;;
39314;SDS011;28703;44.412;11.918;2023-03-11T03:49:59;37.72;;;8.20;;
39314;SDS011;28703;44.412;11.918;2023-03-11T03:52:26;38.45;;;7.43;;
39314;SDS011;28703;44.412;11.918;2023-03-11T03:54:52;29.65;;;6.18;;
39314;SDS011;28703;44.412;11.918;2023-03-11T03:57:18;40.25;;;7.80;;
39314;SDS011;28703;44.412;11.918;2023-03-11T03:59:45;34.17;;;7.38;;
39314;SDS011;28703;44.412;11.918;2023-03-11T04:02:14;36.63;;;7.40;;
39314;SDS011;28703;44.412;11.918;2023-03-11T04:04:41;42.00;;;7.32;;
39314;SDS011;28703;44.412;11.918;2023-03-11T04:07:09;36.65;;;6.90;;
39314;SDS011;28703;44.412;11.918;2023-03-11T04:09:39;33.92;;;7.45;;
39314;SDS011;28703;44.412;11.918;2023-03-11T04:12:06;40.42;;;8.98;;
39314;SDS011;28703;44.412;11.918;2023-03-11T04:14:37;30.00;;;6.70;;
39314;SDS011;28703;44.412;11.918;2023-03-11T04:17:03;41.30;;;8.45;;
39314;SDS011;28703;44.412;11.918;2023-03-11T04:19:29;33.92;;;7.35;;
39314;SDS011;28703;44.412;11.918;2023-03-11T04:21:56;39.53;;;8.63;;
39314;SDS011;28703;44.412;11.918;2023-03-11T04:24:24;31.55;;;6.75;;
39314;SDS011;28703;44.412;11.918;2023-03-11T04:26:50;33.15;;;6.85;;
39314;SDS011;28703;44.412;11.918;2023-03-11T04:29:17;35.80;;;7.38;;
39314;SDS011;28703;44.412;11.918;2023-03-11T04:31:47;32.30;;;7.53;;
39314;SDS011;28703;44.412;11.918;2023-03-11T04:34:14;31.40;;;6.32;;
39314;SDS011;28703;44.412;11.918;2023-03-11T04:36:40;37.00;;;7.63;;
39314;SDS011;28703;44.412;11.918;2023-03-11T04:39:07;37.08;;;6.72;;
39314;SDS011;28703;44.412;11.918;2023-03-11T04:41:39;32.55;;;6.57;;
39314;SDS011;28703;44.412;11.918;2023-03-11T04:44:06;43.45;;;8.02;;
39314;SDS011;28703;44.412;11.918;2023-03-11T04:46:32;34.95;;;7.03;;
39314;SDS011;28703;44.412;11.918;2023-03-11T04:49:00;29.75;;;6.20;;
39314;SDS011;28703;44.412;11.918;2023-03-11T04:51:26;33.22;;;7.05;;
39314;SDS011;28703;44.412;11.918;2023-03-11T04:53:52;40.38;;;8.10;;
39314;SDS011;28703;44.412;11.918;2023-03-11T04:56:18;28.65;;;7.15;;
39314;SDS011;28703;44.412;11.918;2023-03-11T04:58:44;34.65;;;6.60;;
39314;SDS011;28703;44.412;11.918;2023-03-11T05:01:10;33.85;;;8.18;;
39314;SDS011;28703;44.412;11.918;2023-03-11T05:03:37;37.10;;;7.13;;
39314;SDS011;28703;44.412;11.918;2023-03-11T05:06:03;30.02;;;7.47;;
39314;SDS011;28703;44.412;11.918;2023-03-11T05:08:29;33.75;;;7.22;;
39314;SDS011;28703;44.412;11.918;2023-03-11T05:10:55;33.72;;;6.50;;
39314;SDS011;28703;44.412;11.918;2023-03-11T05:13:21;33.92;;;7.70;;
39314;SDS011;28703;44.412;11.918;2023-03-11T05:15:49;39.92;;;7.95;;
39314;SDS011;28703;44.412;11.918;2023-03-11T05:18:15;30.48;;;7.45;;
39314;SDS011;28703;44.412;11.918;2023-03-11T05:20:46;43.50;;;8.57;;
39314;SDS011;28703;44.412;11.918;2023-03-11T05:23:16;27.15;;;6.72;;
39314;SDS011;28703;44.412;11.918;2023-03-11T05:25:42;28.58;;;5.68;;
39314;SDS011;28703;44.412;11.918;2023-03-11T05:28:09;33.72;;;7.45;;
39314;SDS011;28703;44.412;11.918;2023-03-11T05:30:44;28.65;;;7.25;;
39314;SDS011;28703;44.412;11.918;2023-03-11T05:33:14;35.72;;;7.13;;
39314;SDS011;28703;44.412;11.918;2023-03-11T05:35:40;33.03;;;6.95;;
39314;SDS011;28703;44.412;11.918;2023-03-11T05:38:12;30.08;;;5.75;;
39314;SDS011;28703;44.412;11.918;2023-03-11T05:40:38;30.73;;;6.78;;
39314;SDS011;28703;44.412;11.918;2023-03-11T05:43:08;30.58;;;6.45;;
39314;SDS011;28703;44.412;11.918;2023-03-11T05:45:40;28.65;;;6.60;;
39314;SDS011;28703;44.412;11.918;2023-03-11T05:48:06;27.50;;;5.82;;
39314;SDS011;28703;44.412;11.918;2023-03-11T05:50:34;30.50;;;6.82;;
39314;SDS011;28703;44.412;11.918;2023-03-11T05:55:32;28.73;;;5.72;;
39314;SDS011;28703;44.412;11.918;2023-03-11T05:58:02;33.78;;;7.22;;
39314;SDS011;28703;44.412;11.918;2023-03-11T06:00:31;32.65;;;6.28;;
39314;SDS011;28703;44.412;11.918;2023-03-11T06:03:02;25.15;;;7.30;;
39314;SDS011;28703;44.412;11.918;2023-03-11T06:05:28;36.97;;;6.55;;
39314;SDS011;28703;44.412;11.918;2023-03-11T06:07:55;26.90;;;7.07;;
39314;SDS011;28703;44.412;11.918;2023-03-11T06:10:22;29.45;;;5.70;;
39314;SDS011;28703;44.412;11.918;2023-03-11T06:12:48;26.52;;;5.43;;
39314;SDS011;28703;44.412;11.918;2023-03-11T06:15:20;39.78;;;7.70;;
39314;SDS011;28703;44.412;11.918;2023-03-11T06:17:47;25.15;;;5.15;;
39314;SDS011;28703;44.412;11.918;2023-03-11T06:20:13;28.80;;;5.55;;
39314;SDS011;28703;44.412;11.918;2023-03-11T06:22:40;25.13;;;6.25;;
39314;SDS011;28703;44.412;11.918;2023-03-11T06:25:21;33.28;;;6.55;;
39314;SDS011;28703;44.412;11.918;2023-03-11T06:27:52;32.65;;;6.18;;
39314;SDS011;28703;44.412;11.918;2023-03-11T06:30:19;31.50;;;7.03;;
39314;SDS011;28703;44.412;11.918;2023-03-11T06:33:01;26.52;;;5.68;;
39314;SDS011;28703;44.412;11.918;2023-03-11T06:35:28;26.55;;;5.85;;
39314;SDS011;28703;44.412;11.918;2023-03-11T06:38:00;34.38;;;6.03;;
39314;SDS011;28703;44.412;11.918;2023-03-11T06:40:26;27.15;;;5.75;;
39314;SDS011;28703;44.412;11.918;2023-03-11T06:42:52;20.95;;;5.80;;
39314;SDS011;28703;44.412;11.918;2023-03-11T06:45:21;27.25;;;5.38;;
39314;SDS011;28703;44.412;11.918;2023-03-11T06:47:48;34.80;;;6.28;;
39314;SDS011;28703;44.412;11.918;2023-03-11T06:50:20;27.50;;;6.78;;
39314;SDS011;28703;44.412;11.918;2023-03-11T06:52:48;21.65;;;5.10;;
39314;SDS011;28703;44.412;11.918;2023-03-11T06:55:16;28.05;;;5.93;;
39314;SDS011;28703;44.412;11.918;2023-03-11T06:57:43;18.98;;;5.35;;
39314;SDS011;28703;44.412;11.918;2023-03-11T07:00:11;22.08;;;5.05;;
39314;SDS011;28703;44.412;11.918;2023-03-11T07:02:45;24.10;;;4.88;;
39314;SDS011;28703;44.412;11.918;2023-03-11T07:05:13;29.30;;;5.68;;
39314;SDS011;28703;44.412;11.918;2023-03-11T07:07:48;30.17;;;5.20;;
39314;SDS011;28703;44.412;11.918;2023-03-11T07:10:17;25.38;;;5.88;;
39314;SDS011;28703;44.412;11.918;2023-03-11T07:12:47;26.85;;;5.72;;
39314;SDS011;28703;44.412;11.918;2023-03-11T07:15:13;21.60;;;5.00;;
39314;SDS011;28703;44.412;11.918;2023-03-11T07:17:42;23.10;;;5.70;;
39314;SDS011;28703;44.412;11.918;2023-03-11T07:20:08;24.20;;;5.50;;
39314;SDS011;28703;44.412;11.918;2023-03-11T07:22:35;23.40;;;5.20;;
39314;SDS011;28703;44.412;11.918;2023-03-11T07:25:01;26.63;;;4.68;;
39314;SDS011;28703;44.412;11.918;2023-03-11T07:27:30;23.42;;;5.03;;
39314;SDS011;28703;44.412;11.918;2023-03-11T07:29:56;27.88;;;4.55;;
39314;SDS011;28703;44.412;11.918;2023-03-11T07:32:30;19.02;;;4.88;;
39314;SDS011;28703;44.412;11.918;2023-03-11T07:34:59;19.80;;;4.30;;
39314;SDS011;28703;44.412;11.918;2023-03-11T07:37:28;23.35;;;5.00;;
39314;SDS011;28703;44.412;11.918;2023-03-11T07:39:54;23.70;;;4.70;;
39314;SDS011;28703;44.412;11.918;2023-03-11T07:42:20;17.50;;;4.55;;
39314;SDS011;28703;44.412;11.918;2023-03-11T07:44:52;26.33;;;5.28;;
39314;SDS011;28703;44.412;11.918;2023-03-11T07:47:18;27.17;;;5.65;;
39314;SDS011;28703;44.412;11.918;2023-03-11T07:49:44;24.92;;;4.85;;
39314;SDS011;28703;44.412;11.918;2023-03-11T07:52:10;20.60;;;5.20;;
39314;SDS011;28703;44.412;11.918;2023-03-11T07:54:36;18.88;;;4.88;;
39314;SDS011;28703;44.412;11.918;2023-03-11T07:57:02;21.92;;;4.30;;
39314;SDS011;28703;44.412;11.918;2023-03-11T07:59:28;22.15;;;4.82;;
39314;SDS011;28703;44.412;11.918;2023-03-11T08:01:54;22.05;;;5.32;;
39314;SDS011;28703;44.412;11.918;2023-03-11T08:04:21;16.27;;;3.90;;
39314;SDS011;28703;44.412;11.918;2023-03-11T08:06:49;23.45;;;6.43;;
39314;SDS011;28703;44.412;11.918;2023-03-11T08:09:15;20.70;;;4.53;;
39314;SDS011;28703;44.412;11.918;2023-03-11T08:11:42;18.88;;;4.55;;
39314;SDS011;28703;44.412;11.918;2023-03-11T08:14:22;26.23;;;5.07;;
39314;SDS011;28703;44.412;11.918;2023-03-11T08:16:51;15.48;;;4.53;;
39314;SDS011;28703;44.412;11.918;2023-03-11T08:19:18;16.73;;;4.15;;
39314;SDS011;28703;44.412;11.918;2023-03-11T08:22:00;29.35;;;4.60;;
39314;SDS011;28703;44.412;11.918;2023-03-11T08:24:51;17.23;;;4.85;;
39314;SDS011;28703;44.412;11.918;2023-03-11T08:27:23;36.75;;;5.40;;
39314;SDS011;28703;44.412;11.918;2023-03-11T08:29:57;40.25;;;6.60;;
39314;SDS011;28703;44.412;11.918;2023-03-11T08:32:31;22.67;;;5.35;;
39314;SDS011;28703;44.412;11.918;2023-03-11T08:34:58;21.02;;;4.60;;
39314;SDS011;28703;44.412;11.918;2023-03-11T08:37:24;18.95;;;4.43;;
39314;SDS011;28703;44.412;11.918;2023-03-11T08:39:50;18.38;;;4.57;;
39314;SDS011;28703;44.412;11.918;2023-03-11T08:42:17;17.95;;;3.70;;
39314;SDS011;28703;44.412;11.918;2023-03-11T08:44:57;21.55;;;4.30;;
39314;SDS011;28703;44.412;11.918;2023-03-11T08:47:45;12.15;;;3.33;;
39314;SDS011;28703;44.412;11.918;2023-03-11T08:51:02;18.00;;;4.03;;
39314;SDS011;28703;44.412;11.918;2023-03-11T08:53:42;16.00;;;3.70;;
39314;SDS011;28703;44.412;11.918;2023-03-11T08:56:12;20.70;;;4.30;;
39314;SDS011;28703;44.412;11.918;2023-03-11T08:58:46;16.30;;;4.32;;
39314;SDS011;28703;44.412;11.918;2023-03-11T09:01:15;15.38;;;3.65;;
39314;SDS011;28703;44.412;11.918;2023-03-11T09:03:45;13.18;;;3.58;;
39314;SDS011;28703;44.412;11.918;2023-03-11T09:06:15;16.15;;;4.00;;
39314;SDS011;28703;44.412;11.918;2023-03-11T09:08:47;14.70;;;4.05;;
39314;SDS011;28703;44.412;11.918;2023-03-11T09:11:21;13.82;;;3.88;;
39314;SDS011;28703;44.412;11.918;2023-03-11T09:13:50;16.23;;;3.65;;
39314;SDS011;28703;44.412;11.918;2023-03-11T09:16:27;13.23;;;3.33;;
39314;SDS011;28703;44.412;11.918;2023-03-11T09:19:01;18.33;;;4.05;;
39314;SDS011;28703;44.412;11.918;2023-03-11T09:21:32;17.75;;;3.65;;
39314;SDS011;28703;44.412;11.918;2023-03-11T09:23:59;14.00;;;3.75;;
39314;SDS011;28703;44.412;11.918;2023-03-11T09:26:25;20.83;;;8.45;;
39314;SDS011;28703;44.412;11.918;2023-03-11T09:28:54;15.88;;;3.90;;
39314;SDS011;28703;44.412;11.918;2023-03-11T09:31:29;16.48;;;4.13;;
39314;SDS011;28703;44.412;11.918;2023-03-11T09:34:03;12.02;;;3.60;;
39314;SDS011;28703;44.412;11.918;2023-03-11T09:36:30;13.80;;;4.70;;
39314;SDS011;28703;44.412;11.918;2023-03-11T09:39:07;16.88;;;3.95;;
39314;SDS011;28703;44.412;11.918;2023-03-11T09:41:55;17.48;;;3.67;;
39314;SDS011;28703;44.412;11.918;2023-03-11T09:44:31;10.95;;;3.67;;
39314;SDS011;28703;44.412;11.918;2023-03-11T09:58:03;10.20;;;3.03;;
39314;SDS011;28703;44.412;11.918;2023-03-11T10:00:44;10.80;;;2.75;;
39314;SDS011;28703;44.412;11.918;2023-03-11T10:03:23;10.13;;;3.30;;
39314;SDS011;28703;44.412;11.918;2023-03-11T10:05:53;12.27;;;3.90;;
39314;SDS011;28703;44.412;11.918;2023-03-11T10:08:33;9.73;;;3.10;;
39314;SDS011;28703;44.412;11.918;2023-03-11T10:21:52;10.82;;;3.72;;
39314;SDS011;28703;44.412;11.918;2023-03-11T10:27:42;7.93;;;2.35;;
39314;SDS011;28703;44.412;11.918;2023-03-11T10:30:27;9.15;;;2.67;;
39314;SDS011;28703;44.412;11.918;2023-03-11T10:35:39;9.43;;;2.50;;
39314;SDS011;28703;44.412;11.918;2023-03-11T10:38:29;9.20;;;2.88;;
39314;SDS011;28703;44.412;11.918;2023-03-11T10:41:04;7.28;;;2.72;;
39314;SDS011;28703;44.412;11.918;2023-03-11T10:43:43;9.93;;;2.58;;
39314;SDS011;28703;44.412;11.918;2023-03-11T10:46:25;5.63;;;2.17;;
39314;SDS011;28703;44.412;11.918;2023-03-11T10:49:12;13.70;;;2.22;;
39314;SDS011;28703;44.412;11.918;2023-03-11T10:51:40;6.28;;;1.98;;
39314;SDS011;28703;44.412;11.918;2023-03-11T10:54:21;11.93;;;2.58;;
39314;SDS011;28703;44.412;11.918;2023-03-11T10:56:53;5.10;;;1.37;;
39314;SDS011;28703;44.412;11.918;2023-03-11T10:59:44;6.50;;;2.13;;
39314;SDS011;28703;44.412;11.918;2023-03-11T11:08:23;9.35;;;2.47;;
39314;SDS011;28703;44.412;11.918;2023-03-11T11:10:51;10.73;;;2.05;;
39314;SDS011;28703;44.412;11.918;2023-03-11T11:13:34;10.90;;;2.58;;
39314;SDS011;28703;44.412;11.918;2023-03-11T11:16:23;7.80;;;2.35;;
39314;SDS011;28703;44.412;11.918;2023-03-11T11:19:11;10.60;;;3.08;;
39314;SDS011;28703;44.412;11.918;2023-03-11T11:21:44;12.63;;;2.40;;
39314;SDS011;28703;44.412;11.918;2023-03-11T11:29:43;7.72;;;2.83;;
39314;SDS011;28703;44.412;11.918;2023-03-11T11:32:17;7.70;;;2.78;;
39314;SDS011;28703;44.412;11.918;2023-03-11T11:34:58;7.03;;;2.85;;
39314;SDS011;28703;44.412;11.918;2023-03-11T11:37:31;6.30;;;2.00;;
39314;SDS011;28703;44.412;11.918;2023-03-11T11:42:43;6.82;;;2.10;;
39314;SDS011;28703;44.412;11.918;2023-03-11T11:45:18;10.77;;;5.35;;
39314;SDS011;28703;44.412;11.918;2023-03-11T11:47:59;4.88;;;2.58;;
39314;SDS011;28703;44.412;11.918;2023-03-11T11:50:34;7.03;;;1.67;;
39314;SDS011;28703;44.412;11.918;2023-03-11T11:53:14;8.85;;;4.40;;
39314;SDS011;28703;44.412;11.918;2023-03-11T11:56:05;9.82;;;5.15;;
39314;SDS011;28703;44.412;11.918;2023-03-11T11:58:31;7.90;;;3.50;;
39314;SDS011;28703;44.412;11.918;2023-03-11T12:01:06;7.82;;;3.33;;
39314;SDS011;28703;44.412;11.918;2023-03-11T12:12:15;7.38;;;2.15;;
39314;SDS011;28703;44.412;11.918;2023-03-11T12:15:03;6.47;;;2.17;;
39314;SDS011;28703;44.412;11.918;2023-03-11T12:17:31;4.88;;;1.98;;
39314;SDS011;28703;44.412;11.918;2023-03-11T12:28:01;3.85;;;1.85;;
39314;SDS011;28703;44.412;11.918;2023-03-11T12:30:40;4.25;;;2.38;;
39314;SDS011;28703;44.412;11.918;2023-03-11T12:33:13;9.93;;;1.90;;
39314;SDS011;28703;44.412;11.918;2023-03-11T12:35:59;3.70;;;2.30;;
39314;SDS011;28703;44.412;11.918;2023-03-11T12:41:13;48.92;;;39.00;;
39314;SDS011;28703;44.412;11.918;2023-03-11T12:46:22;11.32;;;4.15;;
39314;SDS011;28703;44.412;11.918;2023-03-11T12:54:43;1.55;;;0.73;;
39314;SDS011;28703;44.412;11.918;2023-03-11T13:00:25;1.10;;;0.70;;
39314;SDS011;28703;44.412;11.918;2023-03-11T13:03:27;2.08;;;0.63;;
39314;SDS011;28703;44.412;11.918;2023-03-11T13:09:17;7.57;;;0.70;;
39314;SDS011;28703;44.412;11.918;2023-03-11T13:11:43;3.72;;;0.95;;
39314;SDS011;28703;44.412;11.918;2023-03-11T13:16:40;6.20;;;0.93;;
39314;SDS011;28703;44.412;11.918;2023-03-11T13:21:55;1.75;;;0.63;;
39314;SDS011;28703;44.412;11.918;2023-03-11T13:32:01;2.60;;;0.50;;
39314;SDS011;28703;44.412;11.918;2023-03-11T13:34:40;2.90;;;0.60;;
39314;SDS011;28703;44.412;11.918;2023-03-11T13:43:01;1.40;;;0.80;;
39314;SDS011;28703;44.412;11.918;2023-03-11T13:45:31;1.33;;;0.55;;
39314;SDS011;28703;44.412;11.918;2023-03-11T13:50:58;1.85;;;0.80;;
39314;SDS011;28703;44.412;11.918;2023-03-11T13:53:29;2.55;;;0.80;;
39314;SDS011;28703;44.412;11.918;2023-03-11T13:56:00;2.63;;;0.95;;
39314;SDS011;28703;44.412;11.918;2023-03-11T13:58:26;2.40;;;1.38;;
39314;SDS011;28703;44.412;11.918;2023-03-11T14:00:54;2.63;;;1.27;;
39314;SDS011;28703;44.412;11.918;2023-03-11T14:03:21;1.52;;;1.30;;
39314;SDS011;28703;44.412;11.918;2023-03-11T14:06:03;1.58;;;1.42;;
39314;SDS011;28703;44.412;11.918;2023-03-11T14:08:32;3.80;;;1.10;;
39314;SDS011;28703;44.412;11.918;2023-03-11T14:13:39;1.60;;;1.50;;
39314;SDS011;28703;44.412;11.918;2023-03-11T14:16:13;1.90;;;1.80;;
39314;SDS011;28703;44.412;11.918;2023-03-11T14:18:45;2.83;;;1.90;;
39314;SDS011;28703;44.412;11.918;2023-03-11T14:21:17;2.15;;;2.00;;
39314;SDS011;28703;44.412;11.918;2023-03-11T14:23:45;8.98;;;1.70;;
39314;SDS011;28703;44.412;11.918;2023-03-11T14:26:18;2.17;;;2.00;;
39314;SDS011;28703;44.412;11.918;2023-03-11T14:29:00;4.35;;;3.95;;
39314;SDS011;28703;44.412;11.918;2023-03-11T14:31:40;4.53;;;2.92;;
39314;SDS011;28703;44.412;11.918;2023-03-11T14:36:41;2.28;;;1.88;;
39314;SDS011;28703;44.412;11.918;2023-03-11T14:39:26;2.90;;;2.10;;
39314;SDS011;28703;44.412;11.918;2023-03-11T14:42:39;2.75;;;1.73;;
39314;SDS011;28703;44.412;11.918;2023-03-11T14:44:48;8.98;;;2.00;;
39314;SDS011;28703;44.412;11.918;2023-03-11T14:47:32;3.53;;;1.95;;
39314;SDS011;28703;44.412;11.918;2023-03-11T14:50:05;3.42;;;1.65;;
39314;SDS011;28703;44.412;11.918;2023-03-11T14:55:10;6.60;;;1.95;;
39314;SDS011;28703;44.412;11.918;2023-03-11T14:57:58;2.00;;;1.90;;
39314;SDS011;28703;44.412;11.918;2023-03-11T15:01:01;3.97;;;2.20;;
39314;SDS011;28703;44.412;11.918;2023-03-11T15:03:49;3.53;;;1.95;;
39314;SDS011;28703;44.412;11.918;2023-03-11T15:06:15;1.75;;;1.65;;
39314;SDS011;28703;44.412;11.918;2023-03-11T15:08:43;3.25;;;2.03;;
39314;SDS011;28703;44.412;11.918;2023-03-11T15:11:28;7.75;;;2.30;;
39314;SDS011;28703;44.412;11.918;2023-03-11T15:14:08;2.75;;;2.08;;
39314;SDS011;28703;44.412;11.918;2023-03-11T15:16:44;2.72;;;1.80;;
39314;SDS011;28703;44.412;11.918;2023-03-11T15:22:03;1.65;;;1.55;;
39314;SDS011;28703;44.412;11.918;2023-03-11T15:24:47;1.83;;;1.35;;
39314;SDS011;28703;44.412;11.918;2023-03-11T15:27:22;2.92;;;2.63;;
39314;SDS011;28703;44.412;11.918;2023-03-11T15:29:56;6.22;;;3.83;;
39314;SDS011;28703;44.412;11.918;2023-03-11T15:32:24;7.30;;;3.50;;
39314;SDS011;28703;44.412;11.918;2023-03-11T15:35:13;5.30;;;3.20;;
39314;SDS011;28703;44.412;11.918;2023-03-11T15:37:42;9.80;;;3.08;;
39314;SDS011;28703;44.412;11.918;2023-03-11T15:42:46;4.97;;;3.53;;
39314;SDS011;28703;44.412;11.918;2023-03-11T15:45:17;3.45;;;3.10;;
39314;SDS011;28703;44.412;11.918;2023-03-11T15:47:45;7.20;;;3.13;;
39314;SDS011;28703;44.412;11.918;2023-03-11T15:50:13;5.72;;;2.67;;
39314;SDS011;28703;44.412;11.918;2023-03-11T15:52:45;9.40;;;3.20;;
39314;SDS011;28703;44.412;11.918;2023-03-11T15:55:12;5.88;;;3.08;;
39314;SDS011;28703;44.412;11.918;2023-03-11T15:57:38;3.47;;;2.65;;
39314;SDS011;28703;44.412;11.918;2023-03-11T16:00:06;5.30;;;3.00;;
39314;SDS011;28703;44.412;11.918;2023-03-11T16:02:44;6.93;;;4.22;;
39314;SDS011;28703;44.412;11.918;2023-03-11T16:05:14;26.65;;;3.75;;
39314;SDS011;28703;44.412;11.918;2023-03-11T16:07:44;3.58;;;2.58;;
39314;SDS011;28703;44.412;11.918;2023-03-11T16:10:15;7.32;;;2.78;;
39314;SDS011;28703;44.412;11.918;2023-03-11T16:12:43;5.05;;;3.00;;
39314;SDS011;28703;44.412;11.918;2023-03-11T16:15:22;9.32;;;3.20;;
39314;SDS011;28703;44.412;11.918;2023-03-11T16:17:58;5.50;;;3.97;;
39314;SDS011;28703;44.412;11.918;2023-03-11T16:20:26;7.22;;;3.45;;
39314;SDS011;28703;44.412;11.918;2023-03-11T16:22:56;14.35;;;5.57;;
39314;SDS011;28703;44.412;11.918;2023-03-11T16:25:28;7.38;;;4.53;;
39314;SDS011;28703;44.412;11.918;2023-03-11T16:27:57;10.65;;;4.18;;
39314;SDS011;28703;44.412;11.918;2023-03-11T16:30:24;8.63;;;5.95;;
39314;SDS011;28703;44.412;11.918;2023-03-11T16:32:52;5.38;;;4.93;;
39314;SDS011;28703;44.412;11.918;2023-03-11T16:35:18;12.02;;;5.85;;
39314;SDS011;28703;44.412;11.918;2023-03-11T16:37:44;7.93;;;5.20;;
39314;SDS011;28703;44.412;11.918;2023-03-11T16:40:12;9.30;;;4.75;;
39314;SDS011;28703;44.412;11.918;2023-03-11T16:42:39;7.75;;;4.95;;
39314;SDS011;28703;44.412;11.918;2023-03-11T16:45:05;7.88;;;5.30;;